createdAt,value
2023-03-29T00:02:33.614Z,84.69
2023-03-29T00:05:04.033Z,85.15
2023-03-29T00:07:33.708Z,85.32
2023-03-29T00:10:06.616Z,85.17
2023-03-29T00:12:41.729Z,84.37
2023-03-29T00:15:11.893Z,85.09
2023-03-29T00:17:41.440Z,85.19
2023-03-29T00:20:11.356Z,85.10
2023-03-29T00:22:42.390Z,85.14
2023-03-29T00:25:12.534Z,85.35
2023-03-29T00:27:42.044Z,84.95
2023-03-29T00:30:12.417Z,84.80
2023-03-29T00:32:42.114Z,84.59
2023-03-29T00:35:11.874Z,85.37
2023-03-29T00:37:41.908Z,85.71
2023-03-29T00:40:15.766Z,85.66
2023-03-29T00:42:48.639Z,85.64
2023-03-29T00:45:30.264Z,85.53
2023-03-29T00:48:07.734Z,85.90
2023-03-29T00:50:52.019Z,85.97
2023-03-29T00:53:28.794Z,86.02
2023-03-29T00:56:07.864Z,86.23
2023-03-29T00:58:50.034Z,86.15
2023-03-29T01:01:28.448Z,86.25
2023-03-29T01:04:18.093Z,86.38
2023-03-29T01:07:03.893Z,86.34
2023-03-29T01:09:38.760Z,86.68
2023-03-29T01:12:20.032Z,86.64
2023-03-29T01:15:03.170Z,86.72
2023-03-29T01:17:33.324Z,86.93
2023-03-29T01:20:15.451Z,87.01
2023-03-29T01:23:14.108Z,86.82
2023-03-29T01:26:17.186Z,86.68
2023-03-29T01:29:10.152Z,86.75
2023-03-29T01:32:00.657Z,86.64
2023-03-29T01:34:53.489Z,86.57
2023-03-29T01:37:29.913Z,86.09
2023-03-29T01:40:00.560Z,85.77
2023-03-29T01:42:44.391Z,85.70
2023-03-29T01:45:22.623Z,85.47
2023-03-29T01:48:19.243Z,85.41
2023-03-29T01:51:01.651Z,85.47
2023-03-29T01:53:41.751Z,85.28
2023-03-29T01:56:18.885Z,85.24
2023-03-29T01:58:54.226Z,85.21
2023-03-29T02:01:30.241Z,85.13
2023-03-29T02:04:03.895Z,85.23
2023-03-29T02:06:37.979Z,85.11
2023-03-29T02:09:07.927Z,85.17
2023-03-29T02:11:37.452Z,85.21
2023-03-29T02:14:07.654Z,85.41
2023-03-29T02:16:39.235Z,85.57
2023-03-29T02:19:10.099Z,85.95
2023-03-29T02:21:42.061Z,86.03
2023-03-29T02:24:15.550Z,86.10
2023-03-29T02:26:45.105Z,86.34
2023-03-29T02:29:14.989Z,86.39
2023-03-29T02:31:59.790Z,86.30
2023-03-29T02:34:39.332Z,86.40
2023-03-29T02:37:16.315Z,86.42
2023-03-29T02:39:49.920Z,86.51
2023-03-29T02:42:20.948Z,86.52
2023-03-29T02:44:54.696Z,86.56
2023-03-29T02:47:32.176Z,86.54
2023-03-29T02:50:02.242Z,86.54
2023-03-29T02:52:37.295Z,86.53
2023-03-29T02:55:15.171Z,85.99
2023-03-29T02:57:44.787Z,85.16
2023-03-29T03:00:15.215Z,84.89
2023-03-29T03:02:45.038Z,84.39
2023-03-29T03:05:14.815Z,84.46
2023-03-29T03:07:46.304Z,84.53
2023-03-29T03:10:16.477Z,84.80
2023-03-29T03:12:47.325Z,84.71
2023-03-29T03:15:16.932Z,84.81
2023-03-29T03:17:46.762Z,84.86
2023-03-29T03:20:16.280Z,84.78
2023-03-29T03:22:49.463Z,84.50
2023-03-29T03:25:21.333Z,84.36
2023-03-29T03:27:51.667Z,84.33
2023-03-29T03:30:23.463Z,84.04
2023-03-29T03:32:55.016Z,84.09
2023-03-29T03:35:46.581Z,84.04
2023-03-29T03:38:17.086Z,84.18
2023-03-29T03:40:55.016Z,84.58
2023-03-29T03:43:24.514Z,84.73
2023-03-29T03:45:55.844Z,84.00
2023-03-29T03:48:30.292Z,84.49
2023-03-29T03:51:51.009Z,84.51
2023-03-29T03:54:22.831Z,84.48
2023-03-29T03:57:24.758Z,84.69
2023-03-29T04:00:13.933Z,85.14
2023-03-29T04:02:44.864Z,85.32
2023-03-29T04:05:15.565Z,85.36
2023-03-29T04:07:45.166Z,85.05
2023-03-29T04:11:07.542Z,84.60
2023-03-29T04:13:44.082Z,84.21
2023-03-29T04:16:47.713Z,83.41
2023-03-29T04:19:45.557Z,82.97
2023-03-29T04:22:15.235Z,82.97
2023-03-29T04:24:44.995Z,83.26
2023-03-29T04:27:29.591Z,83.57
2023-03-29T04:29:59.293Z,82.80
2023-03-29T04:32:47.407Z,83.05
2023-03-29T04:35:18.002Z,82.94
2023-03-29T04:37:48.975Z,82.94
2023-03-29T04:40:19.685Z,82.71
2023-03-29T04:43:30.295Z,82.65
2023-03-29T04:46:18.586Z,82.57
2023-03-29T04:49:26.480Z,82.68
2023-03-29T04:51:57.292Z,82.74
2023-03-29T04:54:32.294Z,82.97
2023-03-29T04:58:48.720Z,82.95
2023-03-29T05:01:42.036Z,83.22
2023-03-29T05:04:12.902Z,82.90
2023-03-29T05:06:49.194Z,82.42
2023-03-29T05:09:19.673Z,82.80
2023-03-29T05:11:56.362Z,82.26
2023-03-29T05:14:31.630Z,82.57
2023-03-29T05:17:01.541Z,82.47
2023-03-29T05:19:32.331Z,82.22
2023-03-29T05:22:01.756Z,82.43
2023-03-29T05:24:31.524Z,81.96
2023-03-29T05:27:05.233Z,81.88
2023-03-29T05:29:36.843Z,81.56
2023-03-29T05:32:28.808Z,82.09
2023-03-29T05:34:58.985Z,82.23
2023-03-29T05:40:20.291Z,81.36
2023-03-29T05:43:09.329Z,80.82
2023-03-29T05:45:39.348Z,80.52
2023-03-29T05:48:11.410Z,80.42
2023-03-29T05:50:49.356Z,81.30
2023-03-29T05:53:22.196Z,82.20
2023-03-29T05:55:52.936Z,82.39
2023-03-29T05:58:26.785Z,80.33
2023-03-29T06:00:56.654Z,80.79
2023-03-29T06:03:47.552Z,80.68
2023-03-29T06:06:18.449Z,80.33
2023-03-29T06:08:48.136Z,79.33
2023-03-29T06:11:26.521Z,79.02
2023-03-29T06:14:37.435Z,78.70
2023-03-29T06:17:21.360Z,78.29
2023-03-29T06:19:53.814Z,78.33
2023-03-29T06:22:25.899Z,78.44
2023-03-29T06:24:56.079Z,78.25
2023-03-29T06:27:29.092Z,78.27
2023-03-29T06:30:02.951Z,78.29
2023-03-29T06:32:35.908Z,78.91
2023-03-29T06:35:12.017Z,78.62
2023-03-29T06:37:49.660Z,79.02
2023-03-29T06:40:31.112Z,79.43
2023-03-29T06:43:01.116Z,79.68
2023-03-29T06:45:42.170Z,80.12
2023-03-29T06:48:19.927Z,80.24
2023-03-29T06:50:49.627Z,81.30
2023-03-29T06:53:22.202Z,81.56
2023-03-29T06:55:57.726Z,82.96
2023-03-29T06:58:42.361Z,84.23
2023-03-29T07:01:27.196Z,84.33
2023-03-29T07:04:04.950Z,85.32
2023-03-29T07:06:42.470Z,85.76
2023-03-29T07:09:18.975Z,86.42
2023-03-29T07:12:29.189Z,86.91
2023-03-29T07:15:01.597Z,87.54
2023-03-29T07:17:51.761Z,87.10
2023-03-29T07:20:23.207Z,87.08
2023-03-29T07:23:02.461Z,87.28
2023-03-29T07:25:34.115Z,87.35
2023-03-29T07:28:04.000Z,88.42
2023-03-29T07:30:33.936Z,88.85
2023-03-29T07:33:23.563Z,88.54
2023-03-29T07:35:55.944Z,87.92
2023-03-29T07:38:25.609Z,86.39
2023-03-29T07:41:06.033Z,86.10
2023-03-29T07:43:58.984Z,86.01
2023-03-29T07:46:29.537Z,86.11
2023-03-29T07:48:59.288Z,85.65
2023-03-29T07:51:28.849Z,85.44
2023-03-29T07:54:08.492Z,85.46
2023-03-29T07:56:53.416Z,85.69
2023-03-29T07:59:32.185Z,86.08
2023-03-29T08:02:14.123Z,86.57
2023-03-29T08:04:47.402Z,86.67
2023-03-29T08:07:21.840Z,87.05
2023-03-29T08:10:18.917Z,87.50
2023-03-29T08:13:13.518Z,87.66
2023-03-29T08:15:59.732Z,87.40
2023-03-29T08:18:34.941Z,87.01
2023-03-29T08:21:05.440Z,86.26
2023-03-29T08:23:35.812Z,85.13
2023-03-29T08:26:24.303Z,85.00
2023-03-29T08:28:53.966Z,84.34
2023-03-29T08:31:23.733Z,85.62
2023-03-29T08:33:54.561Z,84.31
2023-03-29T08:36:35.576Z,82.23
2023-03-29T08:39:11.179Z,81.30
2023-03-29T08:42:06.944Z,80.68
2023-03-29T08:45:02.549Z,79.68
2023-03-29T08:47:56.681Z,78.51
2023-03-29T08:50:38.840Z,77.77
2023-03-29T08:53:18.702Z,76.36
2023-03-29T08:56:16.972Z,77.18
2023-03-29T08:59:02.708Z,77.21
2023-03-29T09:01:36.945Z,77.01
2023-03-29T09:04:12.097Z,75.44
2023-03-29T09:06:55.234Z,75.76
2023-03-29T09:09:33.911Z,75.34
2023-03-29T09:12:17.002Z,74.54
2023-03-29T09:15:15.562Z,71.28
2023-03-29T09:18:06.426Z,69.00
2023-03-29T09:21:04.877Z,72.85
2023-03-29T09:23:47.816Z,70.72
2023-03-29T09:27:26.805Z,70.23
2023-03-29T09:30:26.738Z,68.83
2023-03-29T09:33:27.591Z,68.68
2023-03-29T09:36:29.147Z,61.17
2023-03-29T09:38:59.711Z,61.64
2023-03-29T09:42:00.185Z,63.19
2023-03-29T09:44:49.166Z,64.21
2023-03-29T09:47:38.482Z,65.61
2023-03-29T09:50:32.039Z,66.88
2023-03-29T09:53:04.288Z,66.99
2023-03-29T09:55:38.758Z,67.04
2023-03-29T09:58:28.133Z,65.82
2023-03-29T10:01:00.808Z,65.23
2023-03-29T10:03:33.792Z,63.31
2023-03-29T10:06:14.730Z,65.61
2023-03-29T10:08:57.925Z,65.22
2023-03-29T10:11:38.896Z,65.73
2023-03-29T10:14:21.679Z,62.20
2023-03-29T10:16:57.132Z,65.77
2023-03-29T10:19:35.010Z,63.95
2023-03-29T10:22:12.120Z,65.23
2023-03-29T10:24:48.455Z,66.71
2023-03-29T10:27:28.494Z,62.26
2023-03-29T10:30:00.556Z,62.79
2023-03-29T10:32:38.589Z,64.94
2023-03-29T10:35:28.449Z,60.50
2023-03-29T10:37:59.484Z,61.25
2023-03-29T10:40:32.344Z,60.39
2023-03-29T10:43:18.482Z,55.59
2023-03-29T10:46:08.424Z,54.87
2023-03-29T10:48:37.853Z,56.09
2023-03-29T10:51:07.734Z,54.93
2023-03-29T10:53:39.904Z,56.97
2023-03-29T10:56:32.337Z,56.30
2023-03-29T10:59:57.784Z,56.88
2023-03-29T11:02:54.407Z,58.69
2023-03-29T11:05:31.536Z,62.63
2023-03-29T11:08:16.852Z,66.42
2023-03-29T11:11:07.605Z,68.97
2023-03-29T11:14:00.049Z,71.75
2023-03-29T11:17:27.490Z,74.29
2023-03-29T11:20:17.565Z,76.98
2023-03-29T11:23:14.011Z,79.22
2023-03-29T11:25:53.981Z,79.80
2023-03-29T11:28:36.927Z,80.84
2023-03-29T11:31:39.154Z,80.42
2023-03-29T11:34:43.509Z,79.90
2023-03-29T11:37:35.713Z,76.84
2023-03-29T11:40:44.918Z,74.39
2023-03-29T11:43:44.990Z,73.23
2023-03-29T11:46:23.930Z,71.61
2023-03-29T11:49:10.601Z,71.23
2023-03-29T11:52:24.965Z,71.35
2023-03-29T11:55:09.951Z,72.14
2023-03-29T11:58:21.247Z,72.17
2023-03-29T12:01:05.936Z,69.70
2023-03-29T12:03:59.411Z,71.04
2023-03-29T12:07:14.902Z,66.56
2023-03-29T12:10:16.985Z,62.15
2023-03-29T12:12:48.028Z,61.09
2023-03-29T12:15:27.884Z,62.80
2023-03-29T12:18:33.035Z,65.52
2023-03-29T12:21:10.303Z,67.51
2023-03-29T12:23:47.501Z,69.54
2023-03-29T12:26:48.385Z,70.60
2023-03-29T12:30:12.623Z,70.55
2023-03-29T12:33:18.498Z,70.46
2023-03-29T12:38:58.857Z,69.18
2023-03-29T12:42:21.819Z,64.70
2023-03-29T12:45:51.225Z,65.63
2023-03-29T12:48:25.757Z,63.48
2023-03-29T12:51:06.102Z,61.99
2023-03-29T12:53:55.605Z,61.37
2023-03-29T12:56:41.633Z,57.33
2023-03-29T12:59:13.040Z,52.03
2023-03-29T13:02:03.060Z,54.54
2023-03-29T13:04:51.771Z,51.78
2023-03-29T13:07:47.121Z,51.13
2023-03-29T13:10:40.384Z,48.07
2023-03-29T13:13:21.336Z,46.90
2023-03-29T13:15:52.354Z,44.41
2023-03-29T13:18:51.298Z,45.33
2023-03-29T13:22:04.512Z,43.69
2023-03-29T13:24:57.582Z,43.30
2023-03-29T13:27:46.863Z,45.52
2023-03-29T13:30:59.698Z,47.40
2023-03-29T13:34:00.269Z,49.71
2023-03-29T13:37:23.540Z,46.16
2023-03-29T13:39:56.735Z,45.95
2023-03-29T13:42:36.254Z,45.00
2023-03-29T13:45:25.364Z,45.14
2023-03-29T13:48:30.228Z,42.22
2023-03-29T13:51:39.371Z,40.04
2023-03-29T13:54:20.985Z,41.36
2023-03-29T13:57:03.590Z,40.01
2023-03-29T13:59:48.108Z,37.92
2023-03-29T14:02:58.422Z,37.91
2023-03-29T14:05:38.908Z,39.26
2023-03-29T14:08:30.655Z,42.30
2023-03-29T14:11:07.087Z,43.72
2023-03-29T14:13:37.175Z,43.24
2023-03-29T14:16:12.374Z,44.25
2023-03-29T14:18:42.592Z,45.31
2023-03-29T14:21:15.201Z,45.54
2023-03-29T14:23:48.053Z,46.29
2023-03-29T14:26:22.887Z,48.27
2023-03-29T14:28:57.317Z,46.54
2023-03-29T14:31:35.977Z,46.35
2023-03-29T14:34:15.109Z,46.03
2023-03-29T14:36:49.320Z,46.11
2023-03-29T14:39:22.925Z,48.80
2023-03-29T14:41:59.223Z,52.47
2023-03-29T14:44:33.172Z,53.43
2023-03-29T14:47:03.720Z,54.32
2023-03-29T14:49:34.440Z,56.09
2023-03-29T14:52:06.670Z,56.33
2023-03-29T14:54:43.318Z,56.28
2023-03-29T14:57:18.615Z,55.30
2023-03-29T15:00:00.658Z,58.00
2023-03-29T15:02:33.244Z,60.52
2023-03-29T15:05:07.784Z,60.03
2023-03-29T15:07:40.083Z,60.24
2023-03-29T15:10:19.189Z,58.97
2023-03-29T15:12:50.434Z,60.89
2023-03-29T15:15:21.076Z,61.26
2023-03-29T15:17:52.707Z,61.27
2023-03-29T15:20:34.150Z,61.41
2023-03-29T15:23:23.638Z,60.88
2023-03-29T15:25:59.612Z,60.53
2023-03-29T15:28:35.959Z,59.18
2023-03-29T15:31:18.836Z,59.64
2023-03-29T15:33:48.952Z,58.80
2023-03-29T15:36:18.630Z,57.54
2023-03-29T15:38:52.357Z,60.86
2023-03-29T15:41:23.244Z,59.95
2023-03-29T15:43:59.771Z,59.85
2023-03-29T15:46:29.992Z,58.56
2023-03-29T15:49:00.680Z,58.85
2023-03-29T15:51:30.218Z,57.97
2023-03-29T15:53:59.701Z,59.67
2023-03-29T15:56:29.196Z,59.80
2023-03-29T15:58:58.779Z,60.54
2023-03-29T16:01:35.815Z,60.35
2023-03-29T16:04:16.967Z,60.62
2023-03-29T16:06:50.966Z,61.37
2023-03-29T16:09:22.601Z,61.08
2023-03-29T16:11:52.074Z,61.08
2023-03-29T16:14:23.289Z,61.01
2023-03-29T16:16:55.604Z,61.39
2023-03-29T16:19:27.053Z,60.97
2023-03-29T16:21:57.585Z,61.03
2023-03-29T16:24:34.219Z,61.80
2023-03-29T16:27:04.920Z,62.24
2023-03-29T16:29:35.152Z,62.12
2023-03-29T16:32:06.769Z,63.06
2023-03-29T16:34:38.570Z,63.30
2023-03-29T16:37:13.165Z,64.04
2023-03-29T16:39:42.853Z,64.32
2023-03-29T16:42:13.194Z,65.07
2023-03-29T16:44:44.690Z,64.90
2023-03-29T16:47:14.383Z,64.91
2023-03-29T16:49:45.828Z,64.98
2023-03-29T16:52:17.557Z,65.10
2023-03-29T16:54:49.587Z,65.31
2023-03-29T16:57:20.031Z,65.79
2023-03-29T16:59:49.656Z,66.59
2023-03-29T17:02:21.682Z,67.08
2023-03-29T17:04:51.954Z,66.81
2023-03-29T17:07:23.948Z,67.37
2023-03-29T17:09:53.936Z,67.37
2023-03-29T17:12:23.850Z,67.58
2023-03-29T17:14:53.405Z,67.77
2023-03-29T17:17:23.419Z,68.17
2023-03-29T17:19:55.119Z,67.92
2023-03-29T17:22:25.713Z,68.49
2023-03-29T17:24:55.465Z,69.12
2023-03-29T17:27:25.626Z,69.71
2023-03-29T17:29:55.285Z,69.97
2023-03-29T17:32:25.013Z,70.26
2023-03-29T17:34:55.813Z,70.27
2023-03-29T17:37:28.892Z,69.93
2023-03-29T17:39:58.523Z,69.68
2023-03-29T17:42:30.507Z,69.30
2023-03-29T17:45:00.382Z,69.40
2023-03-29T17:47:30.735Z,69.55
2023-03-29T17:50:00.890Z,69.32
2023-03-29T17:52:30.441Z,69.54
2023-03-29T17:55:00.358Z,69.42
2023-03-29T17:57:32.445Z,69.14
2023-03-29T18:00:02.057Z,69.53
2023-03-29T18:02:34.774Z,69.54
2023-03-29T18:05:08.460Z,70.13
2023-03-29T18:07:38.436Z,69.39
2023-03-29T18:10:09.632Z,70.22
2023-03-29T18:12:39.960Z,70.50
2023-03-29T18:15:10.025Z,70.28
2023-03-29T18:17:42.266Z,71.17
2023-03-29T18:20:13.851Z,70.75
2023-03-29T18:22:44.792Z,71.95
2023-03-29T18:25:15.070Z,72.57
2023-03-29T18:27:47.092Z,72.54
2023-03-29T18:30:20.003Z,72.94
2023-03-29T18:32:50.002Z,73.41
2023-03-29T18:35:19.495Z,74.30
2023-03-29T18:37:49.824Z,74.61
2023-03-29T18:40:29.251Z,75.67
2023-03-29T18:42:59.577Z,76.12
2023-03-29T18:45:32.364Z,76.35
2023-03-29T18:48:02.328Z,76.62
2023-03-29T18:50:32.658Z,75.65
2023-03-29T18:53:07.770Z,76.77
2023-03-29T18:55:45.593Z,77.24
2023-03-29T18:58:18.330Z,77.46
2023-03-29T19:00:47.941Z,76.72
2023-03-29T19:03:20.262Z,76.86
2023-03-29T19:05:55.730Z,76.48
2023-03-29T19:08:26.502Z,76.97
2023-03-29T19:11:07.878Z,76.76
2023-03-29T19:13:40.976Z,77.32
2023-03-29T19:16:10.725Z,77.39
2023-03-29T19:18:40.950Z,77.56
2023-03-29T19:21:15.545Z,78.33
2023-03-29T19:23:47.473Z,78.03
2023-03-29T19:26:16.949Z,78.16
2023-03-29T19:28:46.913Z,78.50
2023-03-29T19:31:18.227Z,78.97
2023-03-29T19:33:48.078Z,78.96
2023-03-29T19:36:17.682Z,79.09
2023-03-29T19:38:47.293Z,79.15
2023-03-29T19:41:17.307Z,78.95
2023-03-29T19:43:46.917Z,78.78
2023-03-29T19:46:16.950Z,78.45
2023-03-29T19:48:47.162Z,78.17
2023-03-29T19:51:16.827Z,77.98
2023-03-29T19:53:48.156Z,77.92
2023-03-29T19:56:18.947Z,77.66
2023-03-29T19:58:52.966Z,77.86
2023-03-29T20:01:22.712Z,78.29
2023-03-29T20:03:52.363Z,78.41
2023-03-29T20:06:22.101Z,78.94
2023-03-29T20:08:53.035Z,79.10
2023-03-29T20:11:24.234Z,79.05
2023-03-29T20:13:53.991Z,79.27
2023-03-29T20:16:24.552Z,79.29
2023-03-29T20:18:56.488Z,79.22
2023-03-29T20:21:26.093Z,79.21
2023-03-29T20:23:56.676Z,79.08
2023-03-29T20:26:28.164Z,79.22
2023-03-29T20:28:57.919Z,79.05
2023-03-29T20:31:29.591Z,78.68
2023-03-29T20:33:59.123Z,78.71
2023-03-29T20:36:30.873Z,78.07
2023-03-29T20:39:01.341Z,78.95
2023-03-29T20:41:31.727Z,78.83
2023-03-29T20:44:03.122Z,79.29
2023-03-29T20:46:38.077Z,78.78
2023-03-29T20:49:10.145Z,78.68
2023-03-29T20:51:40.485Z,78.71
2023-03-29T20:54:12.571Z,79.16
2023-03-29T20:56:44.557Z,79.93
2023-03-29T20:59:14.828Z,80.34
2023-03-29T21:01:44.467Z,79.59
2023-03-29T21:04:14.038Z,79.48
2023-03-29T21:06:45.819Z,79.34
2023-03-29T21:09:21.441Z,79.26
2023-03-29T21:11:52.497Z,79.92
2023-03-29T21:14:22.630Z,79.03
2023-03-29T21:16:53.651Z,79.46
2023-03-29T21:19:24.367Z,79.78
2023-03-29T21:21:55.020Z,80.08
2023-03-29T21:24:24.797Z,79.85
2023-03-29T21:26:55.471Z,80.47
2023-03-29T21:29:25.615Z,81.09
2023-03-29T21:31:55.485Z,81.30
2023-03-29T21:34:25.112Z,81.07
2023-03-29T21:36:54.706Z,80.87
2023-03-29T21:39:26.988Z,80.89
2023-03-29T21:41:56.486Z,80.67
2023-03-29T21:44:26.554Z,79.92
2023-03-29T21:46:56.573Z,80.34
2023-03-29T21:49:26.096Z,80.62
2023-03-29T21:51:58.319Z,80.31
2023-03-29T21:54:29.243Z,80.24
2023-03-29T21:56:58.801Z,80.49
2023-03-29T21:59:28.575Z,80.67
2023-03-29T22:01:58.936Z,80.77
2023-03-29T22:04:36.481Z,81.05
2023-03-29T22:07:07.396Z,81.37
2023-03-29T22:09:37.423Z,81.58
2023-03-29T22:12:07.753Z,81.83
2023-03-29T22:14:37.487Z,81.65
2023-03-29T22:17:09.242Z,81.74
2023-03-29T22:19:39.735Z,81.47
2023-03-29T22:22:14.138Z,81.48
2023-03-29T22:24:43.987Z,81.46
2023-03-29T22:27:14.230Z,81.32
2023-03-29T22:29:44.033Z,81.22
2023-03-29T22:32:13.709Z,81.08
2023-03-29T22:34:45.892Z,81.07
2023-03-29T22:37:17.564Z,80.93
2023-03-29T22:39:47.182Z,80.74
2023-03-29T22:42:16.995Z,80.68
2023-03-29T22:44:46.944Z,80.74
2023-03-29T22:47:16.611Z,81.05
2023-03-29T22:49:46.050Z,80.75
2023-03-29T22:52:17.981Z,80.62
2023-03-29T22:54:47.494Z,80.38
2023-03-29T22:57:17.212Z,80.54
2023-03-29T22:59:47.318Z,80.32
2023-03-29T23:02:16.888Z,80.05
2023-03-29T23:04:47.772Z,80.35
2023-03-29T23:07:17.501Z,80.30
2023-03-29T23:09:47.068Z,80.17
2023-03-29T23:12:17.208Z,80.21
2023-03-29T23:14:48.237Z,80.20
2023-03-29T23:17:19.369Z,80.43
2023-03-29T23:19:49.324Z,80.41
2023-03-29T23:22:18.862Z,80.23
2023-03-29T23:24:48.489Z,80.13
2023-03-29T23:27:18.568Z,79.96
2023-03-29T23:29:48.186Z,80.03
2023-03-29T23:32:17.716Z,80.20
2023-03-29T23:34:47.270Z,80.50
2023-03-29T23:37:16.769Z,80.47
2023-03-29T23:39:46.379Z,80.69
2023-03-29T23:42:16.597Z,80.68
2023-03-29T23:44:46.940Z,80.39
2023-03-29T23:47:16.854Z,80.16
2023-03-29T23:49:47.682Z,80.14
2023-03-29T23:52:17.621Z,80.29
2023-03-29T23:54:48.050Z,79.99
2023-03-29T23:57:17.544Z,79.48
2023-03-29T23:59:52.566Z,79.32
